sensor_id;sensor_type;location;lat;lon;timestamp;P1;durP1;ratioP1;P2;durP2;ratioP2
69569;SDS011;56781;42.292;23.146;2022-08-21T00:00:20;7.75;;;4.18;;
69569;SDS011;56781;42.292;23.146;2022-08-21T00:02:53;13.02;;;4.30;;
69569;SDS011;56781;42.292;23.146;2022-08-21T00:05:23;9.90;;;3.92;;
69569;SDS011;56781;42.292;23.146;2022-08-21T00:07:50;9.60;;;4.07;;
69569;SDS011;56781;42.292;23.146;2022-08-21T00:10:18;11.60;;;4.15;;
69569;SDS011;56781;42.292;23.146;2022-08-21T00:12:46;9.60;;;3.80;;
69569;SDS011;56781;42.292;23.146;2022-08-21T00:15:16;11.25;;;4.15;;
69569;SDS011;56781;42.292;23.146;2022-08-21T00:17:47;10.60;;;4.45;;
69569;SDS011;56781;42.292;23.146;2022-08-21T00:20:14;11.27;;;3.50;;
69569;SDS011;56781;42.292;23.146;2022-08-21T00:22:42;8.02;;;3.97;;
69569;SDS011;56781;42.292;23.146;2022-08-21T00:25:11;11.70;;;4.47;;
69569;SDS011;56781;42.292;23.146;2022-08-21T00:27:39;14.10;;;4.45;;
69569;SDS011;56781;42.292;23.146;2022-08-21T00:30:09;11.85;;;5.03;;
69569;SDS011;56781;42.292;23.146;2022-08-21T00:32:48;11.03;;;5.40;;
69569;SDS011;56781;42.292;23.146;2022-08-21T00:35:16;10.68;;;4.75;;
69569;SDS011;56781;42.292;23.146;2022-08-21T00:37:45;12.07;;;5.15;;
69569;SDS011;56781;42.292;23.146;2022-08-21T00:40:14;14.82;;;5.38;;
69569;SDS011;56781;42.292;23.146;2022-08-21T00:42:43;14.05;;;4.82;;
69569;SDS011;56781;42.292;23.146;2022-08-21T00:45:19;11.77;;;5.03;;
69569;SDS011;56781;42.292;23.146;2022-08-21T00:47:49;12.52;;;5.78;;
69569;SDS011;56781;42.292;23.146;2022-08-21T00:50:18;11.80;;;5.38;;
69569;SDS011;56781;42.292;23.146;2022-08-21T00:52:47;10.27;;;5.97;;
69569;SDS011;56781;42.292;23.146;2022-08-21T00:55:18;11.57;;;5.55;;
69569;SDS011;56781;42.292;23.146;2022-08-21T00:57:50;11.23;;;4.97;;
69569;SDS011;56781;42.292;23.146;2022-08-21T01:00:24;17.60;;;5.45;;
69569;SDS011;56781;42.292;23.146;2022-08-21T01:02:57;10.55;;;5.22;;
69569;SDS011;56781;42.292;23.146;2022-08-21T01:05:25;12.90;;;5.15;;
69569;SDS011;56781;42.292;23.146;2022-08-21T01:07:53;10.85;;;4.97;;
69569;SDS011;56781;42.292;23.146;2022-08-21T01:10:23;13.60;;;5.73;;
69569;SDS011;56781;42.292;23.146;2022-08-21T01:12:54;12.27;;;5.00;;
69569;SDS011;56781;42.292;23.146;2022-08-21T01:15:27;11.82;;;5.10;;
69569;SDS011;56781;42.292;23.146;2022-08-21T01:17:58;11.32;;;5.13;;
69569;SDS011;56781;42.292;23.146;2022-08-21T01:20:25;10.95;;;4.70;;
69569;SDS011;56781;42.292;23.146;2022-08-21T01:22:57;11.73;;;4.60;;
69569;SDS011;56781;42.292;23.146;2022-08-21T01:25:25;10.82;;;4.30;;
69569;SDS011;56781;42.292;23.146;2022-08-21T01:27:52;10.25;;;4.80;;
69569;SDS011;56781;42.292;23.146;2022-08-21T01:30:20;10.27;;;4.93;;
69569;SDS011;56781;42.292;23.146;2022-08-21T01:32:50;10.00;;;4.40;;
69569;SDS011;56781;42.292;23.146;2022-08-21T01:35:18;9.77;;;4.50;;
69569;SDS011;56781;42.292;23.146;2022-08-21T01:37:47;9.98;;;4.65;;
69569;SDS011;56781;42.292;23.146;2022-08-21T01:40:15;11.75;;;4.78;;
69569;SDS011;56781;42.292;23.146;2022-08-21T01:42:43;11.98;;;5.32;;
69569;SDS011;56781;42.292;23.146;2022-08-21T01:45:11;9.07;;;4.65;;
69569;SDS011;56781;42.292;23.146;2022-08-21T01:47:46;11.17;;;4.50;;
69569;SDS011;56781;42.292;23.146;2022-08-21T01:50:15;14.15;;;5.05;;
69569;SDS011;56781;42.292;23.146;2022-08-21T01:52:44;10.88;;;4.82;;
69569;SDS011;56781;42.292;23.146;2022-08-21T01:55:12;11.25;;;5.30;;
69569;SDS011;56781;42.292;23.146;2022-08-21T01:57:40;10.60;;;5.07;;
69569;SDS011;56781;42.292;23.146;2022-08-21T02:00:10;9.37;;;4.40;;
69569;SDS011;56781;42.292;23.146;2022-08-21T02:02:39;12.20;;;4.25;;
69569;SDS011;56781;42.292;23.146;2022-08-21T02:05:08;11.38;;;5.20;;
69569;SDS011;56781;42.292;23.146;2022-08-21T02:07:40;11.60;;;5.22;;
69569;SDS011;56781;42.292;23.146;2022-08-21T02:10:13;9.80;;;5.47;;
69569;SDS011;56781;42.292;23.146;2022-08-21T02:12:44;13.03;;;5.50;;
69569;SDS011;56781;42.292;23.146;2022-08-21T02:15:12;15.13;;;5.15;;
69569;SDS011;56781;42.292;23.146;2022-08-21T02:20:08;11.68;;;5.10;;
69569;SDS011;56781;42.292;23.146;2022-08-21T02:22:36;15.98;;;6.07;;
69569;SDS011;56781;42.292;23.146;2022-08-21T02:25:03;15.03;;;5.47;;
69569;SDS011;56781;42.292;23.146;2022-08-21T02:27:36;12.73;;;5.30;;
69569;SDS011;56781;42.292;23.146;2022-08-21T02:30:05;15.93;;;5.88;;
69569;SDS011;56781;42.292;23.146;2022-08-21T02:32:33;15.23;;;6.13;;
69569;SDS011;56781;42.292;23.146;2022-08-21T02:35:00;13.77;;;5.70;;
69569;SDS011;56781;42.292;23.146;2022-08-21T02:37:27;13.07;;;6.43;;
69569;SDS011;56781;42.292;23.146;2022-08-21T02:39:54;14.85;;;6.50;;
69569;SDS011;56781;42.292;23.146;2022-08-21T02:42:21;16.70;;;6.65;;
69569;SDS011;56781;42.292;23.146;2022-08-21T02:44:48;15.80;;;6.88;;
69569;SDS011;56781;42.292;23.146;2022-08-21T02:47:15;16.80;;;6.50;;
69569;SDS011;56781;42.292;23.146;2022-08-21T02:49:42;17.20;;;6.03;;
69569;SDS011;56781;42.292;23.146;2022-08-21T02:52:09;14.90;;;6.53;;
69569;SDS011;56781;42.292;23.146;2022-08-21T02:54:36;17.85;;;6.28;;
69569;SDS011;56781;42.292;23.146;2022-08-21T02:57:03;14.98;;;6.68;;
69569;SDS011;56781;42.292;23.146;2022-08-21T02:59:30;16.05;;;5.90;;
69569;SDS011;56781;42.292;23.146;2022-08-21T03:01:58;16.23;;;6.20;;
69569;SDS011;56781;42.292;23.146;2022-08-21T03:04:25;13.38;;;6.40;;
69569;SDS011;56781;42.292;23.146;2022-08-21T03:06:52;16.77;;;6.40;;
69569;SDS011;56781;42.292;23.146;2022-08-21T03:09:19;14.77;;;6.15;;
69569;SDS011;56781;42.292;23.146;2022-08-21T03:11:46;17.50;;;6.57;;
69569;SDS011;56781;42.292;23.146;2022-08-21T03:14:13;16.57;;;6.87;;
69569;SDS011;56781;42.292;23.146;2022-08-21T03:16:40;21.80;;;7.82;;
69569;SDS011;56781;42.292;23.146;2022-08-21T03:19:08;19.23;;;7.68;;
69569;SDS011;56781;42.292;23.146;2022-08-21T03:21:35;19.20;;;6.88;;
69569;SDS011;56781;42.292;23.146;2022-08-21T03:24:02;15.52;;;6.85;;
69569;SDS011;56781;42.292;23.146;2022-08-21T03:26:32;14.40;;;6.43;;
69569;SDS011;56781;42.292;23.146;2022-08-21T03:28:59;18.50;;;7.20;;
69569;SDS011;56781;42.292;23.146;2022-08-21T03:31:26;18.13;;;6.88;;
69569;SDS011;56781;42.292;23.146;2022-08-21T03:33:58;15.07;;;6.55;;
69569;SDS011;56781;42.292;23.146;2022-08-21T03:36:26;15.80;;;6.50;;
69569;SDS011;56781;42.292;23.146;2022-08-21T03:38:53;23.13;;;6.97;;
69569;SDS011;56781;42.292;23.146;2022-08-21T03:41:20;19.50;;;6.85;;
69569;SDS011;56781;42.292;23.146;2022-08-21T03:43:48;19.10;;;8.02;;
69569;SDS011;56781;42.292;23.146;2022-08-21T03:46:19;21.88;;;7.72;;
69569;SDS011;56781;42.292;23.146;2022-08-21T03:48:47;17.48;;;7.70;;
69569;SDS011;56781;42.292;23.146;2022-08-21T03:51:15;18.57;;;7.70;;
69569;SDS011;56781;42.292;23.146;2022-08-21T03:53:42;22.50;;;8.20;;
69569;SDS011;56781;42.292;23.146;2022-08-21T03:56:09;18.65;;;7.32;;
69569;SDS011;56781;42.292;23.146;2022-08-21T03:58:36;21.48;;;7.05;;
69569;SDS011;56781;42.292;23.146;2022-08-21T04:01:05;22.15;;;7.95;;
69569;SDS011;56781;42.292;23.146;2022-08-21T04:03:34;25.10;;;8.87;;
69569;SDS011;56781;42.292;23.146;2022-08-21T04:06:03;22.77;;;7.97;;
69569;SDS011;56781;42.292;23.146;2022-08-21T04:08:30;19.05;;;6.80;;
69569;SDS011;56781;42.292;23.146;2022-08-21T04:10:57;20.58;;;7.18;;
69569;SDS011;56781;42.292;23.146;2022-08-21T04:13:25;16.63;;;6.45;;
69569;SDS011;56781;42.292;23.146;2022-08-21T04:15:54;15.50;;;6.13;;
69569;SDS011;56781;42.292;23.146;2022-08-21T04:18:26;14.40;;;5.57;;
69569;SDS011;56781;42.292;23.146;2022-08-21T04:20:53;12.48;;;5.85;;
69569;SDS011;56781;42.292;23.146;2022-08-21T04:23:23;14.20;;;5.35;;
69569;SDS011;56781;42.292;23.146;2022-08-21T04:25:52;11.45;;;4.72;;
69569;SDS011;56781;42.292;23.146;2022-08-21T04:28:20;11.43;;;5.00;;
69569;SDS011;56781;42.292;23.146;2022-08-21T04:30:54;15.10;;;4.97;;
69569;SDS011;56781;42.292;23.146;2022-08-21T04:33:22;17.70;;;5.22;;
69569;SDS011;56781;42.292;23.146;2022-08-21T04:35:49;16.40;;;6.13;;
69569;SDS011;56781;42.292;23.146;2022-08-21T04:38:17;14.20;;;5.03;;
69569;SDS011;56781;42.292;23.146;2022-08-21T04:40:44;15.57;;;5.97;;
69569;SDS011;56781;42.292;23.146;2022-08-21T04:43:11;17.85;;;6.32;;
69569;SDS011;56781;42.292;23.146;2022-08-21T04:45:40;12.75;;;6.03;;
69569;SDS011;56781;42.292;23.146;2022-08-21T04:48:11;15.55;;;6.53;;
69569;SDS011;56781;42.292;23.146;2022-08-21T04:50:45;14.40;;;6.65;;
69569;SDS011;56781;42.292;23.146;2022-08-21T04:53:35;12.97;;;6.30;;
69569;SDS011;56781;42.292;23.146;2022-08-21T04:56:06;14.85;;;6.28;;
69569;SDS011;56781;42.292;23.146;2022-08-21T04:58:36;13.07;;;6.20;;
69569;SDS011;56781;42.292;23.146;2022-08-21T05:01:06;16.17;;;6.20;;
69569;SDS011;56781;42.292;23.146;2022-08-21T05:03:35;12.20;;;5.93;;
69569;SDS011;56781;42.292;23.146;2022-08-21T05:06:04;13.93;;;6.17;;
69569;SDS011;56781;42.292;23.146;2022-08-21T05:08:36;13.98;;;6.30;;
69569;SDS011;56781;42.292;23.146;2022-08-21T05:11:04;12.70;;;6.05;;
69569;SDS011;56781;42.292;23.146;2022-08-21T05:13:31;13.32;;;6.50;;
69569;SDS011;56781;42.292;23.146;2022-08-21T05:15:59;18.35;;;7.78;;
69569;SDS011;56781;42.292;23.146;2022-08-21T05:18:26;17.20;;;7.90;;
69569;SDS011;56781;42.292;23.146;2022-08-21T05:20:53;15.68;;;7.32;;
69569;SDS011;56781;42.292;23.146;2022-08-21T05:23:20;17.30;;;6.93;;
69569;SDS011;56781;42.292;23.146;2022-08-21T05:25:47;14.02;;;7.05;;
69569;SDS011;56781;42.292;23.146;2022-08-21T05:28:14;16.55;;;7.78;;
69569;SDS011;56781;42.292;23.146;2022-08-21T05:30:41;17.83;;;7.73;;
69569;SDS011;56781;42.292;23.146;2022-08-21T05:33:07;20.73;;;8.77;;
69569;SDS011;56781;42.292;23.146;2022-08-21T05:35:35;18.92;;;8.20;;
69569;SDS011;56781;42.292;23.146;2022-08-21T05:38:03;16.63;;;7.85;;
69569;SDS011;56781;42.292;23.146;2022-08-21T05:40:40;17.23;;;7.70;;
69569;SDS011;56781;42.292;23.146;2022-08-21T05:43:06;16.23;;;7.20;;
69569;SDS011;56781;42.292;23.146;2022-08-21T05:45:33;15.43;;;6.95;;
69569;SDS011;56781;42.292;23.146;2022-08-21T05:48:19;17.65;;;7.75;;
69569;SDS011;56781;42.292;23.146;2022-08-21T05:50:49;14.80;;;6.82;;
69569;SDS011;56781;42.292;23.146;2022-08-21T05:53:18;13.95;;;6.28;;
69569;SDS011;56781;42.292;23.146;2022-08-21T05:55:46;11.57;;;5.40;;
69569;SDS011;56781;42.292;23.146;2022-08-21T05:58:14;11.70;;;5.35;;
69569;SDS011;56781;42.292;23.146;2022-08-21T06:00:42;9.80;;;5.28;;
69569;SDS011;56781;42.292;23.146;2022-08-21T06:03:14;12.43;;;6.20;;
69569;SDS011;56781;42.292;23.146;2022-08-21T06:05:50;11.57;;;5.90;;
69569;SDS011;56781;42.292;23.146;2022-08-21T06:08:19;12.13;;;5.43;;
69569;SDS011;56781;42.292;23.146;2022-08-21T06:10:47;14.07;;;6.35;;
69569;SDS011;56781;42.292;23.146;2022-08-21T06:13:16;9.55;;;4.80;;
69569;SDS011;56781;42.292;23.146;2022-08-21T06:15:45;10.88;;;4.50;;
69569;SDS011;56781;42.292;23.146;2022-08-21T06:18:13;11.32;;;4.50;;
69569;SDS011;56781;42.292;23.146;2022-08-21T06:20:41;8.57;;;4.60;;
69569;SDS011;56781;42.292;23.146;2022-08-21T06:23:08;9.27;;;4.63;;
69569;SDS011;56781;42.292;23.146;2022-08-21T06:25:35;8.52;;;4.47;;
69569;SDS011;56781;42.292;23.146;2022-08-21T06:28:07;9.70;;;4.22;;
69569;SDS011;56781;42.292;23.146;2022-08-21T06:30:36;12.65;;;4.68;;
69569;SDS011;56781;42.292;23.146;2022-08-21T06:33:04;9.90;;;4.60;;
69569;SDS011;56781;42.292;23.146;2022-08-21T06:35:32;10.55;;;4.75;;
69569;SDS011;56781;42.292;23.146;2022-08-21T06:38:00;9.98;;;4.70;;
69569;SDS011;56781;42.292;23.146;2022-08-21T06:40:27;10.43;;;4.82;;
69569;SDS011;56781;42.292;23.146;2022-08-21T06:43:10;9.50;;;5.32;;
69569;SDS011;56781;42.292;23.146;2022-08-21T06:45:55;9.27;;;4.93;;
69569;SDS011;56781;42.292;23.146;2022-08-21T06:48:23;10.63;;;5.30;;
69569;SDS011;56781;42.292;23.146;2022-08-21T06:50:53;10.63;;;4.88;;
69569;SDS011;56781;42.292;23.146;2022-08-21T06:53:22;7.80;;;5.18;;
69569;SDS011;56781;42.292;23.146;2022-08-21T06:55:49;10.45;;;5.25;;
69569;SDS011;56781;42.292;23.146;2022-08-21T06:58:19;10.57;;;5.43;;
69569;SDS011;56781;42.292;23.146;2022-08-21T07:00:47;9.77;;;5.47;;
69569;SDS011;56781;42.292;23.146;2022-08-21T07:03:18;11.05;;;5.68;;
69569;SDS011;56781;42.292;23.146;2022-08-21T07:05:51;9.57;;;5.57;;
69569;SDS011;56781;42.292;23.146;2022-08-21T07:08:20;10.48;;;6.00;;
69569;SDS011;56781;42.292;23.146;2022-08-21T07:10:47;10.17;;;5.53;;
69569;SDS011;56781;42.292;23.146;2022-08-21T07:13:15;9.23;;;5.80;;
69569;SDS011;56781;42.292;23.146;2022-08-21T07:15:42;11.20;;;5.93;;
69569;SDS011;56781;42.292;23.146;2022-08-21T07:18:09;12.88;;;6.53;;
69569;SDS011;56781;42.292;23.146;2022-08-21T07:20:37;11.13;;;6.05;;
69569;SDS011;56781;42.292;23.146;2022-08-21T07:23:05;14.17;;;6.57;;
69569;SDS011;56781;42.292;23.146;2022-08-21T07:25:37;12.75;;;6.38;;
69569;SDS011;56781;42.292;23.146;2022-08-21T07:28:05;14.98;;;6.78;;
69569;SDS011;56781;42.292;23.146;2022-08-21T07:30:31;12.05;;;6.20;;
69569;SDS011;56781;42.292;23.146;2022-08-21T07:33:02;12.63;;;6.60;;
69569;SDS011;56781;42.292;23.146;2022-08-21T07:35:31;12.60;;;6.77;;
69569;SDS011;56781;42.292;23.146;2022-08-21T07:38:00;10.98;;;6.43;;
69569;SDS011;56781;42.292;23.146;2022-08-21T07:40:29;12.32;;;7.10;;
69569;SDS011;56781;42.292;23.146;2022-08-21T07:42:56;11.75;;;6.57;;
69569;SDS011;56781;42.292;23.146;2022-08-21T07:45:23;13.80;;;7.10;;
69569;SDS011;56781;42.292;23.146;2022-08-21T07:47:52;12.23;;;6.77;;
69569;SDS011;56781;42.292;23.146;2022-08-21T07:50:23;14.23;;;6.93;;
69569;SDS011;56781;42.292;23.146;2022-08-21T07:53:00;14.55;;;7.18;;
69569;SDS011;56781;42.292;23.146;2022-08-21T07:55:27;17.17;;;7.55;;
69569;SDS011;56781;42.292;23.146;2022-08-21T07:57:56;11.98;;;6.88;;
69569;SDS011;56781;42.292;23.146;2022-08-21T08:00:24;15.87;;;7.70;;
69569;SDS011;56781;42.292;23.146;2022-08-21T08:02:52;11.93;;;6.90;;
69569;SDS011;56781;42.292;23.146;2022-08-21T08:05:22;15.73;;;8.73;;
69569;SDS011;56781;42.292;23.146;2022-08-21T08:07:51;14.40;;;7.57;;
69569;SDS011;56781;42.292;23.146;2022-08-21T08:10:28;12.27;;;7.35;;
69569;SDS011;56781;42.292;23.146;2022-08-21T08:12:55;13.70;;;6.93;;
69569;SDS011;56781;42.292;23.146;2022-08-21T08:15:24;13.40;;;6.97;;
69569;SDS011;56781;42.292;23.146;2022-08-21T08:17:53;13.77;;;7.80;;
69569;SDS011;56781;42.292;23.146;2022-08-21T08:20:21;17.75;;;7.65;;
69569;SDS011;56781;42.292;23.146;2022-08-21T08:22:49;13.20;;;7.35;;
69569;SDS011;56781;42.292;23.146;2022-08-21T08:25:19;13.77;;;7.80;;
69569;SDS011;56781;42.292;23.146;2022-08-21T08:27:47;12.25;;;7.10;;
69569;SDS011;56781;42.292;23.146;2022-08-21T08:30:16;15.18;;;7.10;;
69569;SDS011;56781;42.292;23.146;2022-08-21T08:32:44;16.15;;;7.47;;
69569;SDS011;56781;42.292;23.146;2022-08-21T08:35:12;14.63;;;6.93;;
69569;SDS011;56781;42.292;23.146;2022-08-21T08:37:39;15.60;;;7.33;;
69569;SDS011;56781;42.292;23.146;2022-08-21T08:40:38;14.32;;;7.50;;
69569;SDS011;56781;42.292;23.146;2022-08-21T08:43:11;13.68;;;6.90;;
69569;SDS011;56781;42.292;23.146;2022-08-21T08:45:42;10.82;;;7.05;;
69569;SDS011;56781;42.292;23.146;2022-08-21T08:48:14;14.98;;;6.85;;
69569;SDS011;56781;42.292;23.146;2022-08-21T08:50:59;12.90;;;7.07;;
69569;SDS011;56781;42.292;23.146;2022-08-21T08:53:32;10.93;;;6.60;;
69569;SDS011;56781;42.292;23.146;2022-08-21T08:56:04;13.48;;;7.05;;
69569;SDS011;56781;42.292;23.146;2022-08-21T08:58:33;13.15;;;7.18;;
69569;SDS011;56781;42.292;23.146;2022-08-21T09:01:11;13.73;;;7.45;;
69569;SDS011;56781;42.292;23.146;2022-08-21T09:03:42;13.60;;;6.77;;
69569;SDS011;56781;42.292;23.146;2022-08-21T09:09:15;15.32;;;7.40;;
69569;SDS011;56781;42.292;23.146;2022-08-21T09:12:00;11.70;;;7.25;;
69569;SDS011;56781;42.292;23.146;2022-08-21T09:24:12;12.85;;;7.43;;
69569;SDS011;56781;42.292;23.146;2022-08-21T09:29:20;13.93;;;7.40;;
69569;SDS011;56781;42.292;23.146;2022-08-21T09:31:50;13.20;;;6.60;;
69569;SDS011;56781;42.292;23.146;2022-08-21T09:34:26;23.95;;;10.27;;
69569;SDS011;56781;42.292;23.146;2022-08-21T09:36:57;19.48;;;8.25;;
69569;SDS011;56781;42.292;23.146;2022-08-21T09:39:29;47.42;;;25.25;;
69569;SDS011;56781;42.292;23.146;2022-08-21T09:42:06;30.42;;;16.40;;
69569;SDS011;56781;42.292;23.146;2022-08-21T09:44:37;22.17;;;9.30;;
69569;SDS011;56781;42.292;23.146;2022-08-21T09:47:07;25.77;;;13.75;;
69569;SDS011;56781;42.292;23.146;2022-08-21T09:49:36;12.43;;;7.10;;
69569;SDS011;56781;42.292;23.146;2022-08-21T09:52:20;12.65;;;6.90;;
69569;SDS011;56781;42.292;23.146;2022-08-21T09:54:53;14.32;;;6.75;;
69569;SDS011;56781;42.292;23.146;2022-08-21T09:57:23;11.67;;;6.33;;
69569;SDS011;56781;42.292;23.146;2022-08-21T10:00:16;13.18;;;7.10;;
69569;SDS011;56781;42.292;23.146;2022-08-21T10:02:50;13.15;;;6.50;;
69569;SDS011;56781;42.292;23.146;2022-08-21T10:05:22;13.05;;;7.00;;
69569;SDS011;56781;42.292;23.146;2022-08-21T10:07:54;9.23;;;6.40;;
69569;SDS011;56781;42.292;23.146;2022-08-21T10:10:23;11.93;;;7.03;;
69569;SDS011;56781;42.292;23.146;2022-08-21T10:18:35;16.20;;;10.85;;
69569;SDS011;56781;42.292;23.146;2022-08-21T10:35:10;12.95;;;6.72;;
69569;SDS011;56781;42.292;23.146;2022-08-21T10:44:23;11.55;;;7.00;;
69569;SDS011;56781;42.292;23.146;2022-08-21T10:47:08;10.02;;;6.90;;
69569;SDS011;56781;42.292;23.146;2022-08-21T10:55:32;11.73;;;7.10;;
69569;SDS011;56781;42.292;23.146;2022-08-21T10:58:12;12.13;;;7.13;;
69569;SDS011;56781;42.292;23.146;2022-08-21T11:00:51;14.73;;;7.22;;
69569;SDS011;56781;42.292;23.146;2022-08-21T11:03:33;13.98;;;7.55;;
69569;SDS011;56781;42.292;23.146;2022-08-21T11:06:09;12.70;;;7.27;;
69569;SDS011;56781;42.292;23.146;2022-08-21T11:08:42;14.88;;;7.93;;
69569;SDS011;56781;42.292;23.146;2022-08-21T11:19:22;14.00;;;7.20;;
69569;SDS011;56781;42.292;23.146;2022-08-21T11:22:12;12.00;;;7.55;;
69569;SDS011;56781;42.292;23.146;2022-08-21T11:27:36;15.52;;;8.13;;
69569;SDS011;56781;42.292;23.146;2022-08-21T11:30:09;17.08;;;8.95;;
69569;SDS011;56781;42.292;23.146;2022-08-21T11:35:42;21.25;;;12.20;;
69569;SDS011;56781;42.292;23.146;2022-08-21T11:41:01;14.63;;;8.35;;
69569;SDS011;56781;42.292;23.146;2022-08-21T11:43:50;14.70;;;8.45;;
69569;SDS011;56781;42.292;23.146;2022-08-21T11:49:33;15.63;;;7.80;;
69569;SDS011;56781;42.292;23.146;2022-08-21T11:52:12;17.25;;;9.18;;
69569;SDS011;56781;42.292;23.146;2022-08-21T11:54:55;17.88;;;11.15;;
69569;SDS011;56781;42.292;23.146;2022-08-21T11:57:32;20.38;;;12.02;;
69569;SDS011;56781;42.292;23.146;2022-08-21T12:00:05;17.77;;;12.23;;
69569;SDS011;56781;42.292;23.146;2022-08-21T12:02:42;14.75;;;8.77;;
69569;SDS011;56781;42.292;23.146;2022-08-21T12:05:22;14.85;;;7.68;;
69569;SDS011;56781;42.292;23.146;2022-08-21T12:08:00;11.90;;;6.68;;
69569;SDS011;56781;42.292;23.146;2022-08-21T12:10:32;14.80;;;7.50;;
69569;SDS011;56781;42.292;23.146;2022-08-21T12:13:10;16.13;;;8.00;;
69569;SDS011;56781;42.292;23.146;2022-08-21T12:18:41;15.23;;;8.57;;
69569;SDS011;56781;42.292;23.146;2022-08-21T12:21:24;18.27;;;9.50;;
69569;SDS011;56781;42.292;23.146;2022-08-21T12:26:49;21.60;;;9.87;;
69569;SDS011;56781;42.292;23.146;2022-08-21T12:29:21;23.02;;;11.30;;
69569;SDS011;56781;42.292;23.146;2022-08-21T12:34:38;20.85;;;10.35;;
69569;SDS011;56781;42.292;23.146;2022-08-21T12:37:17;22.15;;;11.00;;
69569;SDS011;56781;42.292;23.146;2022-08-21T12:39:47;21.47;;;11.07;;
69569;SDS011;56781;42.292;23.146;2022-08-21T12:42:19;20.45;;;10.98;;
69569;SDS011;56781;42.292;23.146;2022-08-21T12:44:58;21.40;;;10.88;;
69569;SDS011;56781;42.292;23.146;2022-08-21T12:47:31;19.35;;;9.90;;
69569;SDS011;56781;42.292;23.146;2022-08-21T12:50:21;20.75;;;9.65;;
69569;SDS011;56781;42.292;23.146;2022-08-21T12:53:03;20.90;;;10.57;;
69569;SDS011;56781;42.292;23.146;2022-08-21T12:55:46;20.90;;;9.55;;
69569;SDS011;56781;42.292;23.146;2022-08-21T12:58:31;14.93;;;8.38;;
69569;SDS011;56781;42.292;23.146;2022-08-21T13:01:12;14.57;;;7.45;;
69569;SDS011;56781;42.292;23.146;2022-08-21T13:03:46;16.10;;;8.05;;
69569;SDS011;56781;42.292;23.146;2022-08-21T13:06:29;13.90;;;7.50;;
69569;SDS011;56781;42.292;23.146;2022-08-21T13:09:04;14.60;;;7.80;;
69569;SDS011;56781;42.292;23.146;2022-08-21T13:11:34;13.13;;;7.70;;
69569;SDS011;56781;42.292;23.146;2022-08-21T13:14:06;13.32;;;7.15;;
69569;SDS011;56781;42.292;23.146;2022-08-21T13:16:56;15.77;;;8.23;;
69569;SDS011;56781;42.292;23.146;2022-08-21T13:19:25;15.73;;;8.53;;
69569;SDS011;56781;42.292;23.146;2022-08-21T13:21:52;16.90;;;8.38;;
69569;SDS011;56781;42.292;23.146;2022-08-21T13:24:21;17.00;;;8.38;;
69569;SDS011;56781;42.292;23.146;2022-08-21T13:27:23;17.00;;;8.30;;
69569;SDS011;56781;42.292;23.146;2022-08-21T13:30:12;18.20;;;8.80;;
69569;SDS011;56781;42.292;23.146;2022-08-21T13:32:54;14.50;;;8.23;;
69569;SDS011;56781;42.292;23.146;2022-08-21T13:35:26;14.70;;;7.80;;
69569;SDS011;56781;42.292;23.146;2022-08-21T13:38:03;18.80;;;8.20;;
69569;SDS011;56781;42.292;23.146;2022-08-21T13:40:32;15.25;;;7.90;;
69569;SDS011;56781;42.292;23.146;2022-08-21T13:43:18;15.63;;;8.45;;
69569;SDS011;56781;42.292;23.146;2022-08-21T13:45:53;14.70;;;7.80;;
69569;SDS011;56781;42.292;23.146;2022-08-21T13:48:22;15.73;;;8.43;;
69569;SDS011;56781;42.292;23.146;2022-08-21T13:50:52;13.95;;;7.68;;
69569;SDS011;56781;42.292;23.146;2022-08-21T13:53:23;14.60;;;7.97;;
69569;SDS011;56781;42.292;23.146;2022-08-21T13:56:00;14.55;;;7.80;;
69569;SDS011;56781;42.292;23.146;2022-08-21T13:58:33;17.37;;;7.67;;
69569;SDS011;56781;42.292;23.146;2022-08-21T14:01:27;11.90;;;6.68;;
69569;SDS011;56781;42.292;23.146;2022-08-21T14:04:36;13.20;;;7.13;;
69569;SDS011;56781;42.292;23.146;2022-08-21T14:07:25;13.23;;;7.20;;
69569;SDS011;56781;42.292;23.146;2022-08-21T14:10:03;13.25;;;7.35;;
69569;SDS011;56781;42.292;23.146;2022-08-21T14:12:43;15.00;;;7.23;;
69569;SDS011;56781;42.292;23.146;2022-08-21T14:15:14;13.65;;;7.80;;
69569;SDS011;56781;42.292;23.146;2022-08-21T14:17:45;13.50;;;7.68;;
69569;SDS011;56781;42.292;23.146;2022-08-21T14:20:25;15.25;;;7.50;;
69569;SDS011;56781;42.292;23.146;2022-08-21T14:22:55;13.63;;;7.72;;
69569;SDS011;56781;42.292;23.146;2022-08-21T14:27:51;12.75;;;7.35;;
69569;SDS011;56781;42.292;23.146;2022-08-21T14:30:33;14.32;;;7.15;;
69569;SDS011;56781;42.292;23.146;2022-08-21T14:33:02;11.25;;;6.40;;
69569;SDS011;56781;42.292;23.146;2022-08-21T14:35:31;11.50;;;6.40;;
69569;SDS011;56781;42.292;23.146;2022-08-21T14:37:58;12.20;;;6.70;;
69569;SDS011;56781;42.292;23.146;2022-08-21T14:40:26;15.00;;;6.70;;
69569;SDS011;56781;42.292;23.146;2022-08-21T14:42:53;16.85;;;8.02;;
69569;SDS011;56781;42.292;23.146;2022-08-21T14:45:27;15.40;;;8.23;;
69569;SDS011;56781;42.292;23.146;2022-08-21T14:47:57;18.52;;;8.32;;
69569;SDS011;56781;42.292;23.146;2022-08-21T14:50:25;14.10;;;7.27;;
69569;SDS011;56781;42.292;23.146;2022-08-21T14:52:53;14.10;;;7.05;;
69569;SDS011;56781;42.292;23.146;2022-08-21T14:55:21;12.82;;;6.28;;
69569;SDS011;56781;42.292;23.146;2022-08-21T14:57:49;12.63;;;6.68;;
69569;SDS011;56781;42.292;23.146;2022-08-21T15:00:21;12.98;;;6.80;;
69569;SDS011;56781;42.292;23.146;2022-08-21T15:03:01;10.63;;;5.90;;
69569;SDS011;56781;42.292;23.146;2022-08-21T15:05:29;12.43;;;6.68;;
69569;SDS011;56781;42.292;23.146;2022-08-21T15:07:59;12.38;;;6.50;;
69569;SDS011;56781;42.292;23.146;2022-08-21T15:10:27;13.93;;;6.45;;
69569;SDS011;56781;42.292;23.146;2022-08-21T15:12:54;9.40;;;6.38;;
69569;SDS011;56781;42.292;23.146;2022-08-21T15:15:21;10.47;;;6.47;;
69569;SDS011;56781;42.292;23.146;2022-08-21T15:17:48;13.48;;;6.38;;
69569;SDS011;56781;42.292;23.146;2022-08-21T15:20:15;10.48;;;6.25;;
69569;SDS011;56781;42.292;23.146;2022-08-21T15:22:42;12.15;;;6.47;;
69569;SDS011;56781;42.292;23.146;2022-08-21T15:25:13;14.07;;;6.47;;
69569;SDS011;56781;42.292;23.146;2022-08-21T15:27:40;12.43;;;6.67;;
69569;SDS011;56781;42.292;23.146;2022-08-21T15:30:07;11.07;;;6.38;;
69569;SDS011;56781;42.292;23.146;2022-08-21T15:32:35;11.32;;;6.35;;
69569;SDS011;56781;42.292;23.146;2022-08-21T15:35:02;12.20;;;6.68;;
69569;SDS011;56781;42.292;23.146;2022-08-21T15:37:30;11.18;;;6.45;;
69569;SDS011;56781;42.292;23.146;2022-08-21T15:39:57;11.53;;;6.20;;
69569;SDS011;56781;42.292;23.146;2022-08-21T15:42:25;14.88;;;6.85;;
69569;SDS011;56781;42.292;23.146;2022-08-21T15:44:54;11.45;;;6.57;;
69569;SDS011;56781;42.292;23.146;2022-08-21T15:47:27;13.20;;;6.88;;
69569;SDS011;56781;42.292;23.146;2022-08-21T15:49:57;13.75;;;6.60;;
69569;SDS011;56781;42.292;23.146;2022-08-21T15:52:24;13.00;;;6.83;;
69569;SDS011;56781;42.292;23.146;2022-08-21T15:54:51;13.63;;;6.82;;
69569;SDS011;56781;42.292;23.146;2022-08-21T15:57:19;11.50;;;7.00;;
69569;SDS011;56781;42.292;23.146;2022-08-21T15:59:52;10.65;;;6.60;;
69569;SDS011;56781;42.292;23.146;2022-08-21T16:02:27;13.48;;;7.30;;
69569;SDS011;56781;42.292;23.146;2022-08-21T16:04:56;12.37;;;6.97;;